Aurillac Airport

LFLW · Auvergne-Rhône-Alpes, France

5 octobre 2022

Temps Code Temps Temp. Vue Base cloud Vent METAR/SPECI
03:30
V
11 °C 10 km+ - 130° 130° 5 kt METAR LFCR 050130Z AUTO 13005KT CAVOK 11/10 Q1024 NOSIG
03:00
V
11 °C 10 km+ - 110° 110° 3 kt METAR LFCR 050100Z AUTO 11003KT CAVOK 11/10 Q1024 NOSIG
02:30
V
12 °C 10 km+ - 110° 110° 3 kt METAR LFCR 050030Z AUTO 11003KT CAVOK 12/10 Q1024 NOSIG
02:00
V
12 °C 10 km+ - Var Var 3 kt METAR LFCR 050000Z AUTO VRB03KT CAVOK 12/10 Q1024 NOSIG
01:30
V
12 °C 10 km+ - 140° 140° 7 kt METAR LFCR 042330Z AUTO 14007KT CAVOK 12/10 Q1024 NOSIG
01:00
V
11 °C 10 km+ - Var Var 2 kt METAR LFCR 042300Z AUTO VRB02KT CAVOK 11/10 Q1024 NOSIG
00:30
V
12 °C 10 km+ - 140° 140° 4 kt METAR LFCR 042230Z AUTO 14004KT CAVOK 12/09 Q1024 NOSIG
00:00
V
12 °C 10 km+ - 140° 140° 5 kt METAR LFCR 042200Z AUTO 14005KT CAVOK 12/10 Q1024 NOSIG

4 octobre 2022

Temps Code Temps Temp. Vue Base cloud Vent METAR/SPECI
23:30
V
13 °C 10 km+ - 120° 120° 4 kt METAR LFCR 042130Z AUTO 12004KT 080V140 CAVOK 13/11 Q1024 NOSIG
23:00
V
11 °C 10 km+ - 160° 160° 5 kt METAR LFCR 042100Z AUTO 16005KT CAVOK 11/10 Q1024 NOSIG
22:30
V
12 °C 10 km+ - 100° 100° 2 kt METAR LFCR 042030Z AUTO 10002KT CAVOK 12/10 Q1024 NOSIG
22:00
V
13 °C 10 km+ - 200° 200° 2 kt METAR LFCR 042000Z AUTO 20002KT CAVOK 13/11 Q1024 NOSIG
21:30
V
13 °C 10 km+ - 220° 220° 3 kt METAR LFCR 041930Z AUTO 22003KT CAVOK 13/11 Q1024 NOSIG
21:00
V
14 °C 10 km+ - 200° 200° 3 kt METAR LFCR 041900Z AUTO 20003KT CAVOK 14/11 Q1023 NOSIG
20:30
V
16 °C 10 km+ - 290° 290° 1 kt METAR LFCR 041830Z AUTO 29001KT CAVOK 16/11 Q1023 NOSIG
20:00
V
17 °C 10 km+ - Var Var 1 kt METAR LFCR 041800Z AUTO VRB01KT CAVOK 17/11 Q1023 NOSIG
19:30
V
19 °C 10 km+ - 320° 320° 3 kt METAR LFCR 041730Z AUTO 32003KT CAVOK 19/12 Q1023 NOSIG
19:00
V
21 °C 10 km+ - 330° 330° 4 kt METAR LFCR 041700Z AUTO 33004KT CAVOK 21/12 Q1023 NOSIG
18:30
V
21 °C 10 km+ - 290° 290° 5 kt METAR LFCR 041630Z AUTO 29005KT 240V320 CAVOK 21/12 Q1022 NOSIG
18:00
V
22 °C 10 km+ - 290° 290° 4 kt METAR LFCR 041600Z AUTO 29004KT 150V320 CAVOK 22/12 Q1022 NOSIG
17:30
V
22 °C 10 km+ - 330° 330° 5 kt METAR LFCR 041530Z AUTO 33005KT 290V030 CAVOK 22/12 Q1022 NOSIG
17:00
V
22 °C 10 km+ - 300° 300° 5 kt METAR LFCR 041500Z AUTO 30005KT 230V360 CAVOK 22/11 Q1022 NOSIG
16:30
V
23 °C 10 km+ - Var Var 3 kt METAR LFCR 041430Z AUTO VRB03KT CAVOK 23/11 Q1022 NOSIG
16:00
V
22 °C 10 km+ - 290° 290° 3 kt METAR LFCR 041400Z AUTO 29003KT 200V350 CAVOK 22/10 Q1022 NOSIG
15:30
V
22 °C 10 km+ - 270° 270° 4 kt METAR LFCR 041330Z AUTO 27004KT 210V010 CAVOK 22/10 Q1022 NOSIG
15:00
V
22 °C 10 km+ - Var Var 2 kt METAR LFCR 041300Z AUTO VRB02KT CAVOK 22/10 Q1022 NOSIG
14:30
V
21 °C 10 km+ - Var Var 4 kt METAR LFCR 041230Z AUTO VRB04KT CAVOK 21/10 Q1022 NOSIG
14:00
V
21 °C 10 km+ - Var Var 3 kt METAR LFCR 041200Z AUTO VRB03KT CAVOK 21/11 Q1023 NOSIG
13:30
V
20 °C 10 km+ - Var Var 3 kt METAR LFCR 041130Z AUTO VRB03KT CAVOK 20/10 Q1023 NOSIG
13:00
V
20 °C 10 km+ - 230° 230° 4 kt METAR LFCR 041100Z AUTO 23004KT 200V310 CAVOK 20/11 Q1023 NOSIG
12:30
V
19 °C 10 km+ - Var Var 3 kt METAR LFCR 041030Z AUTO VRB03KT CAVOK 19/11 Q1023 NOSIG
12:00
V
18 °C 10 km+ - 360° 360° 3 kt METAR LFCR 041000Z AUTO 36003KT 300V070 CAVOK 18/11 Q1023 NOSIG
11:30
V
17 °C 10 km+ - Var Var 2 kt METAR LFCR 040930Z AUTO VRB02KT CAVOK 17/12 Q1023 NOSIG
11:00
V
16 °C 10 km+ - Var Var 2 kt METAR LFCR 040900Z AUTO VRB02KT CAVOK 16/12 Q1023 NOSIG
10:30
V
14 °C 10 km+ - Var Var 2 kt METAR LFCR 040830Z AUTO VRB02KT CAVOK 14/11 Q1023 NOSIG
10:00
V
12 °C 10 km+ - Var Var 3 kt METAR LFCR 040800Z AUTO VRB03KT CAVOK 12/10 Q1022 NOSIG
09:30
V
10 °C 10 km+ - Var Var 2 kt METAR LFCR 040730Z AUTO VRB02KT CAVOK 10/09 Q1022 NOSIG
09:00
V
9 °C 10 km+ - 090° 090° 3 kt METAR LFCR 040700Z AUTO 09003KT CAVOK 09/08 Q1022 TEMPO 2000 BR
08:30
V
8 °C 10 km+ - 080° 080° 3 kt METAR LFCR 040630Z AUTO 08003KT CAVOK 08/08 Q1022 TEMPO 2000 BR
08:00
L
6 °C 800 m - 120° 120° 2 kt METAR LFCR 040600Z AUTO 12002KT 9999 0800 R31/1200D BCFG NSC 06/06 Q1021 TEMPO 2000 BR
07:30
V
6 °C 10 km+ - 150° 150° 2 kt METAR LFCR 040530Z AUTO 15002KT CAVOK 06/05 Q1021 TEMPO 4000 BR
07:00
M
6 °C 5 km - 150° 150° 3 kt METAR LFCR 040500Z AUTO 15003KT 5000 BR NSC 06/06 Q1021 NOSIG
06:30
M
7 °C 7 km - 110° 110° 2 kt METAR LFCR 040430Z AUTO 11002KT 7000 R31/1300U NSC 07/07 Q1021 TEMPO 4000 BR
06:00
L
8 °C 500 m - 090° 090° 3 kt METAR LFCR 040400Z AUTO 09003KT 6000 0500 R31/0600D BCFG NSC 08/08 Q1021 TEMPO 4000 BR
05:30
V
9 °C 10 km+ - 100° 100° 3 kt METAR LFCR 040330Z AUTO 10003KT CAVOK 09/09 Q1021 TEMPO 4000 BR
05:00
I
7 °C 1,7 km - 110° 110° 3 kt METAR LFCR 040300Z AUTO 11003KT 4000 1700 BR NSC 07/06 Q1021 NOSIG
04:30
M
8 °C 6 km - 110° 110° 3 kt METAR LFCR 040230Z AUTO 11003KT 6000 R31/1100U NSC 08/07 Q1021 TEMPO 4000 BR
04:00
V
8 °C 9 km - 110° 110° 3 kt METAR LFCR 040200Z AUTO 11003KT 9000 NSC 08/08 Q1021 TEMPO 4000 BR
03:30
V
9 °C 10 km+ - 100° 100° 3 kt METAR LFCR 040130Z AUTO 10003KT CAVOK 09/09 Q1022 TEMPO 4000 BR
03:00
V
8 °C 10 km+ - 130° 130° 2 kt METAR LFCR 040100Z AUTO 13002KT CAVOK 08/08 Q1022 TEMPO 4000 BR
02:30
V
8 °C 10 km+ - 150° 150° 3 kt METAR LFCR 040030Z AUTO 15003KT CAVOK 08/08 Q1022 TEMPO 4000 BR
02:00
V
8 °C 10 km+ - 130° 130° 3 kt METAR LFCR 040000Z AUTO 13003KT CAVOK 08/08 Q1022 NOSIG
01:30
V
9 °C 10 km+ - 140° 140° 4 kt METAR LFCR 032330Z AUTO 14004KT CAVOK 09/09 Q1022 NOSIG
01:00
V
10 °C 10 km+ - 120° 120° 2 kt METAR LFCR 032300Z AUTO 12002KT CAVOK 10/09 Q1022 NOSIG
00:30
V
9 °C 10 km+ - Var Var 1 kt METAR LFCR 032230Z AUTO VRB01KT CAVOK 09/08 Q1022 NOSIG
00:00
V
10 °C 10 km+ - 140° 140° 2 kt METAR LFCR 032200Z AUTO 14002KT CAVOK 10/09 Q1022 NOSIG

3 octobre 2022

Temps Code Temps Temp. Vue Base cloud Vent METAR/SPECI
23:30
V
11 °C 10 km+ - Var 000° 0 kt METAR LFCR 032130Z AUTO 00000KT CAVOK 11/09 Q1022 NOSIG
23:00
V
11 °C 10 km+ - 240° 240° 1 kt METAR LFCR 032100Z AUTO 24001KT CAVOK 11/09 Q1022 NOSIG
22:30
V
12 °C 10 km+ - Var 000° 0 kt METAR LFCR 032030Z AUTO 00000KT CAVOK 12/10 Q1022 NOSIG
22:00
V
14 °C 10 km+ - 010° 010° 3 kt METAR LFCR 032000Z AUTO 01003KT CAVOK 14/10 Q1022 NOSIG
21:30
V
14 °C 10 km+ - Var Var 1 kt METAR LFCR 031930Z AUTO VRB01KT CAVOK 14/10 Q1022 NOSIG
21:00
V
16 °C 10 km+ - 340° 340° 3 kt METAR LFCR 031900Z AUTO 34003KT 310V010 CAVOK 16/11 Q1022 NOSIG
20:30
V
16 °C 10 km+ - 340° 340° 5 kt METAR LFCR 031830Z AUTO 34005KT CAVOK 16/11 Q1022 NOSIG
20:00
V
17 °C 10 km+ - 350° 350° 4 kt METAR LFCR 031800Z AUTO 35004KT CAVOK 17/11 Q1022 NOSIG
19:30
V
18 °C 10 km+ - 350° 350° 4 kt METAR LFCR 031730Z AUTO 35004KT CAVOK 18/11 Q1022 NOSIG
19:00
V
19 °C 10 km+ - 360° 360° 7 kt METAR LFCR 031700Z AUTO 36007KT CAVOK 19/11 Q1022 NOSIG
18:30
V
20 °C 10 km+ - 360° 360° 7 kt METAR LFCR 031630Z AUTO 36007KT CAVOK 20/11 Q1022 NOSIG
18:00
V
20 °C 10 km+ - 330° 330° 8 kt METAR LFCR 031600Z AUTO 33008KT 300V360 CAVOK 20/11 Q1022 NOSIG
17:30
V
21 °C 10 km+ - 350° 350° 7 kt METAR LFCR 031530Z AUTO 35007KT 320V020 CAVOK 21/11 Q1022 NOSIG
17:00
V
21 °C 10 km+ - 320° 320° 6 kt METAR LFCR 031500Z AUTO 32006KT 250V010 CAVOK 21/11 Q1022 NOSIG
16:30
V
21 °C 10 km+ - 330° 330° 6 kt METAR LFCR 031430Z AUTO 33006KT 290V010 CAVOK 21/11 Q1023 NOSIG
16:00
V
21 °C 10 km+ - 310° 310° 6 kt METAR LFCR 031400Z AUTO 31006KT 270V360 CAVOK 21/11 Q1023 NOSIG
15:30
V
20 °C 10 km+ - 320° 320° 7 kt METAR LFCR 031330Z AUTO 32007KT 250V360 CAVOK 20/11 Q1023 NOSIG
15:00
V
20 °C 10 km+ - 330° 330° 7 kt METAR LFCR 031300Z AUTO 33007KT 290V360 CAVOK 20/12 Q1023 NOSIG
14:30
V
19 °C 10 km+ - 010° 010° 6 kt METAR LFCR 031230Z AUTO 01006KT 320V060 CAVOK 19/11 Q1023 NOSIG
14:00
V
18 °C 10 km+ - 350° 350° 7 kt METAR LFCR 031200Z AUTO 35007KT 290V040 CAVOK 18/11 Q1024 NOSIG
13:30
V
18 °C 10 km+ - 310° 310° 5 kt METAR LFCR 031130Z AUTO 31005KT 270V350 9999 FEW024 18/12 Q1024 NOSIG
13:00
V
17 °C 10 km+ - 010° 010° 4 kt METAR LFCR 031100Z AUTO 01004KT 310V070 9999 FEW020 17/11 Q1024 NOSIG
12:30
V
16 °C 10 km+ - Var Var 2 kt METAR LFCR 031030Z AUTO VRB02KT CAVOK 16/12 Q1025 NOSIG
12:00
V
13 °C 10 km+ - Var Var 2 kt METAR LFCR 031000Z AUTO VRB02KT 9999 FEW004 13/12 Q1025 NOSIG
11:30
L
12 °C 10 km+ - Var Var 2 kt METAR LFCR 030930Z AUTO VRB02KT 9999 VV/// 12/12 Q1025 BECMG NSC
11:00
L
11 °C 1 km - Var Var 2 kt METAR LFCR 030900Z AUTO VRB02KT 1100 1000 R31/1300D BR VV/// 11/11 Q1025 BECMG CAVOK
10:30
L
11 °C 400 m - Var Var 3 kt METAR LFCR 030830Z AUTO VRB03KT 0400 R31/0550N FG VV/// 11/11 Q1025 BECMG CAVOK
10:00
L
10 °C 350 m - Var Var 2 kt METAR LFCR 030800Z AUTO VRB02KT 0400 0350 R31/0700U FG VV/// 10/10 Q1025 BECMG CAVOK
09:30
L
10 °C 300 m - Var Var 2 kt METAR LFCR 030730Z AUTO VRB02KT 0350 0300 R31/0400U FG VV/// 10/10 Q1025 BECMG CAVOK
09:00
L
10 °C 300 m - Var Var 2 kt METAR LFCR 030700Z AUTO VRB02KT 0350 0300 R31/0400N FG VV/// 10/10 Q1025 NOSIG
08:30
L
10 °C 350 m - 020° 020° 1 kt METAR LFCR 030630Z AUTO 02001KT 0400 0350 R31/1200U FG VV/// 10/10 Q1024 TEMPO 0200 FG
08:00
L
10 °C 800 m - 210° 210° 3 kt METAR LFCR 030600Z AUTO 21003KT 0800 R31/1100U FG VV/// 10/10 Q1024 TEMPO 0200 FG
07:30
L
10 °C 250 m - Var Var 1 kt METAR LFCR 030530Z AUTO VRB01KT 0250 R31/0250N FG VV/// 10/10 Q1024 NOSIG
07:00
L
10 °C 200 m - 210° 210° 3 kt METAR LFCR 030500Z AUTO 21003KT 0200 R31/M0200N FG VV/// 10/10 Q1024 TEMPO 0400 FG
06:30
L
9 °C 200 m - Var 000° 0 kt METAR LFCR 030430Z AUTO 00000KT 0250 0200 R31/M0200N FG VV/// 09/09 Q1024 TEMPO 0400 FG
06:00
L
9 °C 450 m - 290° 290° 2 kt METAR LFCR 030400Z AUTO 29002KT 0500 0450 R31/0650U FG VV/// 09/09 Q1025 NOSIG
05:30
L
8 °C 550 m - Var 000° 0 kt METAR LFCR 030330Z AUTO 00000KT 0650 0550 R31/0700D FG VV/// 08/08 Q1025 TEMPO 0400 FG
05:00
L
9 °C 400 m - 120° 120° 1 kt METAR LFCR 030300Z AUTO 12001KT 0450 0400 R31/0450N FG VV/// 09/09 Q1025 NOSIG
04:30
L
8 °C 350 m - Var Var 1 kt METAR LFCR 030230Z AUTO VRB01KT 0450 0350 R31/0450U FG VV/// 08/08 Q1025 NOSIG
04:00
L
9 °C 650 m - Var 000° 0 kt METAR LFCR 030200Z AUTO 00000KT 1300 0650 R31/1300D BCFG VV/// 09/08 Q1025 TEMPO 0400 FG
03:30
L
11 °C 350 m - Var 000° 0 kt METAR LFCR 030130Z AUTO 00000KT 0350 R31/0750U FG VV/// 11/11 Q1025 NOSIG
03:00
L
10 °C 600 m - Var Var 1 kt METAR LFCR 030100Z AUTO VRB01KT 0600 R31/0750D FG VV/// 10/10 Q1026 NOSIG
02:30
L
11 °C 1,1 km - 140° 140° 2 kt METAR LFCR 030030Z AUTO 14002KT 1900 1100 R31/1900D BR SCT029 11/11 Q1026 TEMPO 0400 FG VV///
02:00
M
12 °C 6 km - 070° 070° 4 kt METAR LFCR 030000Z AUTO 07004KT 020V080 6000 NSC 12/12 Q1026 TEMPO 3000 BR
01:30
V
12 °C 10 km+ - Var Var 2 kt METAR LFCR 022330Z AUTO VRB02KT CAVOK 12/12 Q1026 TEMPO 3000 BR
01:00
V
11 °C 10 km+ - 270° 270° 3 kt METAR LFCR 022300Z AUTO 27003KT CAVOK 11/11 Q1026 BECMG 4000 BR
00:30
V
11 °C 10 km+ - 230° 230° 2 kt METAR LFCR 022230Z AUTO 23002KT CAVOK 11/10 Q1026 BECMG 4000 BR
00:00
V
11 °C 10 km+ - 270° 270° 1 kt METAR LFCR 022200Z AUTO 27001KT 9999 SCT018 11/10 Q1026 NOSIG

2 octobre 2022

Temps Code Temps Temp. Vue Base cloud Vent METAR/SPECI
23:30
V
12 °C 10 km+ - Var 000° 0 kt METAR LFCR 022130Z AUTO 00000KT 9999 FEW019 12/11 Q1026 NOSIG
23:00
V
14 °C 10 km+ - 320° 320° 4 kt METAR LFCR 022100Z AUTO 32004KT CAVOK 14/13 Q1027 NOSIG
22:30
V
13 °C 10 km+ - 300° 300° 4 kt METAR LFCR 022030Z AUTO 30004KT CAVOK 13/12 Q1027 NOSIG
22:00
V
13 °C 10 km+ - 280° 280° 2 kt METAR LFCR 022000Z AUTO 28002KT CAVOK 13/12 Q1027 NOSIG
21:30
V
14 °C 10 km+ - 330° 330° 3 kt METAR LFCR 021930Z AUTO 33003KT 9999 FEW034 14/12 Q1026 NOSIG
21:00
V
14 °C 10 km+ 3.300 ft 310° 310° 3 kt METAR LFCR 021900Z AUTO 31003KT 9999 OVC033 14/12 Q1026 NOSIG
20:30
V
14 °C 10 km+ - 300° 300° 4 kt METAR LFCR 021830Z AUTO 30004KT 9999 FEW036 14/12 Q1026 NOSIG
20:00
V
14 °C 10 km+ - 280° 280° 4 kt METAR LFCR 021800Z AUTO 28004KT CAVOK 14/12 Q1026 NOSIG
19:30
V
15 °C 10 km+ - 300° 300° 5 kt METAR LFCR 021730Z AUTO 30005KT CAVOK 15/12 Q1026 NOSIG
19:00
V
17 °C 10 km+ - 320° 320° 4 kt METAR LFCR 021700Z AUTO 32004KT CAVOK 17/12 Q1026 NOSIG
Données plus anciennes

Nous et des tiers suivons ton comportement sur Internet sur notre site Web à l'aide de cookies. Si tu continues, nous supposons que tu acceptes notre politique en matière de cookies. Apprendre plus